Time;durP1;ratioP1;P1;durP2;ratioP2;P2;SDS_P1;SDS_P2;PMS_P1;PMS_P2;Temp;Humidity;BMP_temperature;BMP_pressure;BME280_temperature;BME280_humidity;BME280_pressure;Samples;Min_cycle;Max_cycle;Signal;HPM_P1;HPM_P2
2022/09/26 00:01:30;;;;;;;10.80;6.23;;;13.90;83.20;;;;;;5021676;28;20480;-76
2022/09/26 00:04:00;;;;;;;9.03;5.90;;;13.90;83.20;;;;;;5022530;28;20448;-76
2022/09/26 00:06:28;;;;;;;8.47;5.60;;;13.90;83.20;;;;;;5021421;28;20806;-76
2022/09/26 00:08:56;;;;;;;9.97;5.80;;;13.90;83.20;;;;;;5025973;28;20467;-76
2022/09/26 00:11:28;;;;;;;12.57;6.00;;;13.90;83.10;;;;;;5025768;28;20560;-76
2022/09/26 00:14:00;;;;;;;8.30;5.60;;;13.90;83.10;;;;;;5027596;28;21056;-76
2022/09/26 00:16:28;;;;;;;9.97;5.77;;;13.90;83.10;;;;;;5025995;28;20467;-76
2022/09/26 00:18:57;;;;;;;10.80;5.73;;;13.90;83.10;;;;;;5030364;28;20845;-76
2022/09/26 00:21:26;;;;;;;12.50;5.87;;;13.90;83.00;;;;;;5025442;28;20472;-76
2022/09/26 00:23:54;;;;;;;9.47;6.30;;;13.80;82.90;;;;;;5028077;28;20515;-76
2022/09/26 00:26:24;;;;;;;8.43;5.13;;;13.80;82.90;;;;;;5026334;28;20478;-76
2022/09/26 00:28:56;;;;;;;10.40;5.67;;;13.80;82.90;;;;;;5025721;28;20566;-76
2022/09/26 00:31:25;;;;;;;7.40;4.67;;;13.70;82.90;;;;;;5022360;28;21132;-76
2022/09/26 00:33:53;;;;;;;8.40;5.03;;;13.70;82.80;;;;;;5025144;28;20586;-77
2022/09/26 00:36:24;;;;;;;7.53;5.00;;;13.70;82.70;;;;;;5023365;28;20841;-76
2022/09/26 00:39:04;;;;;;;11.53;5.00;;;13.70;82.70;;;;;;5023672;28;21006;-76
2022/09/26 00:41:32;;;;;;;11.17;5.20;;;13.60;82.60;;;;;;5027158;28;20483;-75
2022/09/26 00:44:02;;;;;;;10.13;5.20;;;13.60;82.50;;;;;;5025870;28;20535;-76
2022/09/26 00:46:34;;;;;;;7.20;4.20;;;13.50;82.50;;;;;;5030818;28;20524;-77
2022/09/26 00:49:21;;;;;;;7.13;3.90;;;13.50;82.50;;;;;;5024591;28;20495;-75
2022/09/26 00:51:54;;;;;;;7.00;4.10;;;13.50;82.40;;;;;;5034761;28;21057;-76
2022/09/26 00:54:22;;;;;;;6.30;4.20;;;13.40;82.40;;;;;;5024777;28;20896;-76
2022/09/26 00:56:55;;;;;;;6.57;4.50;;;13.40;82.30;;;;;;5024483;28;20465;-76
2022/09/26 00:59:29;;;;;;;5.90;3.57;;;13.30;82.20;;;;;;5026569;28;20456;-74
2022/09/26 01:01:59;;;;;;;7.10;4.13;;;13.30;82.30;;;;;;5024894;28;21038;-76
2022/09/26 01:04:29;;;;;;;6.63;4.17;;;13.20;82.30;;;;;;5016767;28;20935;-76
2022/09/26 01:06:59;;;;;;;8.10;3.90;;;13.20;82.20;;;;;;5022698;28;21196;-76
2022/09/26 01:09:28;;;;;;;8.53;3.80;;;13.20;82.30;;;;;;5025480;28;20463;-76
2022/09/26 01:11:57;;;;;;;6.60;3.50;;;13.20;82.20;;;;;;5031438;28;20930;-76
2022/09/26 01:14:26;;;;;;;7.97;4.10;;;13.20;82.20;;;;;;5030593;28;20514;-76
2022/09/26 01:16:56;;;;;;;7.77;4.27;;;13.10;82.10;;;;;;5032305;28;20521;-76
2022/09/26 01:19:34;;;;;;;6.93;4.17;;;13.10;82.00;;;;;;5027880;28;20464;-75
2022/09/26 01:22:31;;;;;;;9.53;5.03;;;13.00;82.00;;;;;;5026878;28;20475;-75
2022/09/26 01:25:09;;;;;;;7.93;4.83;;;13.00;82.10;;;;;;5038196;28;20511;-75
2022/09/26 01:27:57;;;;;;;9.23;4.10;;;13.00;82.20;;;;;;5028785;28;20466;-75
2022/09/26 01:30:31;;;;;;;9.27;4.87;;;13.00;82.20;;;;;;5032485;28;20447;-75
2022/09/26 01:33:34;;;;;;;8.80;4.90;;;13.00;82.20;;;;;;5029948;28;20451;-76
2022/09/26 01:36:20;;;;;;;8.00;4.90;;;13.00;82.30;;;;;;5029627;28;20592;-76
2022/09/26 01:38:59;;;;;;;8.20;4.73;;;13.00;82.20;;;;;;5021016;28;20475;-74
2022/09/26 01:41:44;;;;;;;7.90;4.97;;;13.00;82.20;;;;;;5033450;28;20476;-76
2022/09/26 01:44:26;;;;;;;8.10;5.10;;;13.00;82.20;;;;;;5032950;28;20518;-75
2022/09/26 01:46:58;;;;;;;9.37;5.17;;;13.10;82.20;;;;;;5029045;28;20464;-76
2022/09/26 01:49:31;;;;;;;8.50;5.40;;;13.00;82.10;;;;;;5029265;28;20490;-76
2022/09/26 01:52:05;;;;;;;7.97;5.10;;;13.00;82.10;;;;;;5036966;28;20459;-75
2022/09/26 01:54:39;;;;;;;7.27;5.20;;;13.00;82.20;;;;;;5028811;28;20480;-77
2022/09/26 01:57:14;;;;;;;9.27;4.97;;;13.00;82.20;;;;;;5031057;28;20458;-76
2022/09/26 01:59:48;;;;;;;7.30;4.57;;;13.10;82.20;;;;;;5030007;28;20465;-76
2022/09/26 02:02:25;;;;;;;8.80;4.90;;;13.10;82.20;;;;;;5035390;28;20490;-75
2022/09/26 02:04:56;;;;;;;9.27;5.10;;;13.10;82.20;;;;;;5021622;28;20479;-75
2022/09/26 02:07:33;;;;;;;9.67;5.90;;;13.10;82.10;;;;;;5022430;28;20464;-75
2022/09/26 02:10:07;;;;;;;10.40;5.80;;;13.00;82.20;;;;;;5030678;28;20507;-75
2022/09/26 02:12:39;;;;;;;14.10;6.03;;;13.10;82.20;;;;;;5027354;28;20463;-75
2022/09/26 02:15:11;;;;;;;9.57;5.87;;;13.10;82.20;;;;;;5033351;28;20907;-75
2022/09/26 02:17:44;;;;;;;11.43;6.83;;;13.10;82.30;;;;;;5027969;28;20460;-76
2022/09/26 02:20:16;;;;;;;14.73;6.70;;;13.10;82.30;;;;;;5028842;28;20456;-74
2022/09/26 02:22:45;;;;;;;9.57;5.80;;;13.10;82.20;;;;;;5026186;28;20484;-76
2022/09/26 02:25:15;;;;;;;10.80;6.13;;;13.10;82.20;;;;;;5019610;28;20483;-76
2022/09/26 02:27:43;;;;;;;11.63;6.03;;;13.10;82.20;;;;;;5027484;28;20462;-76
2022/09/26 02:30:12;;;;;;;12.07;7.00;;;13.10;82.20;;;;;;5025871;28;20455;-76
2022/09/26 02:32:42;;;;;;;9.43;5.73;;;13.10;82.20;;;;;;5026918;28;20480;-76
2022/09/26 02:35:52;;;;;;;10.30;5.57;;;13.10;82.30;;;;;;5026541;28;20480;-75
2022/09/26 02:38:04;;;;;;;14.10;6.07;;;13.10;82.30;;;;;;5026490;28;20468;-77
2022/09/26 02:40:41;;;;;;;8.97;5.03;;;13.10;82.30;;;;;;5026061;28;21030;-77
2022/09/26 02:43:30;;;;;;;8.67;5.00;;;13.10;82.40;;;;;;5030004;28;20589;-76
2022/09/26 02:46:08;;;;;;;10.17;5.57;;;13.10;82.40;;;;;;5028114;28;20479;-76
2022/09/26 02:48:52;;;;;;;16.67;7.43;;;13.10;82.50;;;;;;5026353;28;20510;-76
2022/09/26 02:51:50;;;;;;;8.17;4.80;;;13.10;82.50;;;;;;5041949;28;20452;-76
2022/09/26 02:54:23;;;;;;;8.97;5.30;;;13.10;82.50;;;;;;5042248;28;20460;-75
2022/09/26 02:57:10;;;;;;;8.80;5.07;;;13.10;82.50;;;;;;5020703;28;20462;-75
2022/09/26 02:59:48;;;;;;;9.03;5.50;;;13.20;82.50;;;;;;5025893;28;20472;-74
2022/09/26 03:02:20;;;;;;;10.50;4.60;;;13.20;82.50;;;;;;5038798;28;20487;-75
2022/09/26 03:05:13;;;;;;;11.33;5.37;;;13.20;82.40;;;;;;5025921;28;20479;-76
2022/09/26 03:07:46;;;;;;;11.23;5.27;;;13.10;82.40;;;;;;5020494;28;20532;-76
2022/09/26 03:10:15;;;;;;;9.60;5.87;;;13.10;82.40;;;;;;5024930;28;20468;-76
2022/09/26 03:12:45;;;;;;;11.57;5.83;;;13.10;82.20;;;;;;5022832;28;20484;-76
2022/09/26 03:15:14;;;;;;;14.30;5.37;;;13.10;82.30;;;;;;5024657;28;20495;-76
2022/09/26 03:17:47;;;;;;;10.40;5.10;;;13.00;82.40;;;;;;5025019;28;20472;-75
2022/09/26 03:20:20;;;;;;;12.47;5.20;;;13.00;82.40;;;;;;5030100;28;20467;-76
2022/09/26 03:22:51;;;;;;;12.07;5.20;;;13.00;82.40;;;;;;5024346;28;20484;-75
2022/09/26 03:25:22;;;;;;;11.37;5.43;;;13.00;82.40;;;;;;5024267;28;20472;-76
2022/09/26 03:27:59;;;;;;;12.07;5.50;;;13.00;82.30;;;;;;5028733;28;20546;-74
2022/09/26 03:30:29;;;;;;;12.10;5.73;;;13.00;82.20;;;;;;5024306;28;20468;-76
2022/09/26 03:33:15;;;;;;;10.60;5.40;;;13.00;82.10;;;;;;5022945;28;20502;-75
2022/09/26 03:35:45;;;;;;;9.20;5.10;;;12.90;82.10;;;;;;5024141;28;20535;-75
2022/09/26 03:38:14;;;;;;;11.33;6.10;;;12.90;82.00;;;;;;5026939;28;20583;-77
2022/09/26 03:40:48;;;;;;;13.83;5.87;;;12.80;82.10;;;;;;5037450;28;20521;-76
2022/09/26 03:43:56;;;;;;;11.63;7.13;;;12.80;82.10;;;;;;4953893;28;20507;-76
2022/09/26 03:46:28;;;;;;;10.80;6.40;;;12.70;82.10;;;;;;4931909;28;20515;-76
2022/09/26 03:48:55;;;;;;;10.80;6.20;;;12.70;82.10;;;;;;4991868;28;20452;-77
2022/09/26 03:51:25;;;;;;;14.83;5.57;;;12.70;82.00;;;;;;5024900;28;20476;-77
2022/09/26 03:53:53;;;;;;;10.50;5.27;;;12.70;81.90;;;;;;5040086;28;20521;-77
2022/09/26 03:56:23;;;;;;;9.97;5.20;;;12.60;81.90;;;;;;5024148;28;20907;-76
2022/09/26 03:58:51;;;;;;;9.20;5.13;;;12.60;81.90;;;;;;5024724;28;20460;-76
2022/09/26 04:01:22;;;;;;;9.40;4.50;;;12.60;81.90;;;;;;5029395;28;20464;-76
2022/09/26 04:03:50;;;;;;;8.00;4.63;;;12.50;81.80;;;;;;5024710;28;20529;-76
2022/09/26 04:06:20;;;;;;;12.00;5.13;;;12.50;81.70;;;;;;5028901;28;20571;-75
2022/09/26 04:08:52;;;;;;;9.27;5.00;;;12.40;81.70;;;;;;5022769;28;20464;-76
2022/09/26 04:11:23;;;;;;;10.90;6.27;;;12.40;81.70;;;;;;5023429;28;20895;-76
2022/09/26 04:13:52;;;;;;;13.60;6.33;;;12.40;81.70;;;;;;5023320;28;20885;-75
2022/09/26 04:16:24;;;;;;;10.10;5.43;;;12.40;81.80;;;;;;5025521;28;21037;-76
2022/09/26 04:18:59;;;;;;;10.17;6.10;;;12.40;81.80;;;;;;5026824;28;20478;-76
2022/09/26 04:21:28;;;;;;;8.20;5.63;;;12.30;81.80;;;;;;5026026;28;20463;-74
2022/09/26 04:23:59;;;;;;;15.13;6.33;;;12.30;81.70;;;;;;5040063;28;20563;-76
2022/09/26 04:26:27;;;;;;;9.90;5.93;;;12.30;81.80;;;;;;5026025;28;21193;-76
2022/09/26 04:28:57;;;;;;;10.50;6.10;;;12.30;81.80;;;;;;5025818;28;20532;-77
2022/09/26 04:31:55;;;;;;;19.47;7.60;;;12.40;81.70;;;;;;5011501;28;20486;-76
2022/09/26 04:34:30;;;;;;;9.50;6.70;;;12.30;81.60;;;;;;5033304;28;20481;-74
2022/09/26 04:36:58;;;;;;;10.50;6.20;;;12.30;81.50;;;;;;5023360;28;20516;-75
2022/09/26 04:39:27;;;;;;;11.27;5.63;;;12.30;81.50;;;;;;5025793;28;20548;-76
2022/09/26 04:41:57;;;;;;;9.33;6.33;;;12.30;81.60;;;;;;5021384;28;20857;-76
2022/09/26 04:44:25;;;;;;;9.50;5.80;;;12.30;81.50;;;;;;5016241;28;20467;-76
2022/09/26 04:46:53;;;;;;;10.40;6.43;;;12.20;81.30;;;;;;5034475;28;20455;-74
2022/09/26 04:49:28;;;;;;;9.23;5.97;;;12.20;81.40;;;;;;5026050;28;20494;-77
2022/09/26 04:51:56;;;;;;;11.43;6.33;;;12.20;81.40;;;;;;5021525;28;20456;-75
2022/09/26 04:54:25;;;;;;;10.63;6.20;;;12.20;81.50;;;;;;5031042;28;20466;-75
2022/09/26 04:56:55;;;;;;;9.07;6.30;;;12.20;81.40;;;;;;5023435;28;20468;-75
2022/09/26 04:59:23;;;;;;;8.70;5.90;;;12.10;81.10;;;;;;5023114;28;20468;-74
2022/09/26 05:01:59;;;;;;;16.10;6.90;;;12.00;80.80;;;;;;5022253;28;20502;-75
2022/09/26 05:04:36;;;;;;;13.00;7.37;;;11.90;80.90;;;;;;5015724;28;20482;-75
2022/09/26 05:07:04;;;;;;;17.60;13.00;;;11.80;81.00;;;;;;5022963;28;20464;-76
2022/09/26 05:09:33;;;;;;;16.67;12.37;;;11.80;81.20;;;;;;5027354;28;20467;-76
2022/09/26 05:12:17;;;;;;;12.07;8.00;;;11.80;81.20;;;;;;5033193;28;20559;-76
2022/09/26 05:14:50;;;;;;;10.60;8.07;;;11.80;81.20;;;;;;5020219;28;20471;-75
2022/09/26 05:17:19;;;;;;;17.93;10.10;;;11.80;81.30;;;;;;5026799;28;20513;-74
2022/09/26 05:19:47;;;;;;;14.30;9.20;;;11.80;81.40;;;;;;5016296;28;20460;-76
2022/09/26 05:22:30;;;;;;;16.43;8.10;;;11.80;81.50;;;;;;5024571;28;20479;-77
2022/09/26 05:27:46;;;;;;;12.63;7.93;;;11.80;81.40;;;;;;5016368;28;20465;-76
2022/09/26 05:30:14;;;;;;;12.97;8.33;;;11.80;81.50;;;;;;5021987;28;21283;-76
2022/09/26 05:32:44;;;;;;;18.00;8.43;;;11.80;81.50;;;;;;5021643;28;20569;-77
2022/09/26 05:35:13;;;;;;;13.90;8.83;;;11.80;81.50;;;;;;5020997;28;20479;-77
2022/09/26 05:37:42;;;;;;;17.10;9.03;;;11.90;81.60;;;;;;5022232;28;20464;-77
2022/09/26 05:43:03;;;;;;;15.63;10.00;;;11.90;81.40;;;;;;5022973;28;20472;-78
2022/09/26 05:45:31;;;;;;;18.20;11.30;;;11.90;81.50;;;;;;5021794;28;20480;-76
2022/09/26 05:48:02;;;;;;;24.37;13.90;;;11.90;81.40;;;;;;5023849;28;20838;-76
2022/09/26 05:50:30;;;;;;;20.57;12.30;;;11.90;81.60;;;;;;5022152;28;21337;-75
2022/09/26 05:52:58;;;;;;;21.37;13.20;;;12.00;81.60;;;;;;5022595;28;20509;-75
2022/09/26 05:55:27;;;;;;;19.10;12.87;;;12.00;81.70;;;;;;5023738;28;20883;-76
2022/09/26 05:58:17;;;;;;;23.07;14.80;;;12.00;81.70;;;;;;5025978;28;20454;-75
2022/09/26 06:01:06;;;;;;;22.40;14.73;;;12.00;81.70;;;;;;5029475;28;20495;-75
2022/09/26 06:03:35;;;;;;;23.53;14.97;;;12.10;81.80;;;;;;5026641;28;20510;-76
2022/09/26 06:06:10;;;;;;;22.00;13.87;;;12.10;81.80;;;;;;5017810;28;20480;-75
2022/09/26 06:08:39;;;;;;;22.50;14.00;;;12.10;81.90;;;;;;5024588;28;20510;-75
2022/09/26 06:11:23;;;;;;;22.70;14.00;;;12.20;81.70;;;;;;5027668;28;20571;-74
2022/09/26 06:13:54;;;;;;;23.47;14.70;;;12.20;81.80;;;;;;5023394;28;20455;-75
2022/09/26 06:16:22;;;;;;;25.70;15.10;;;12.20;81.80;;;;;;5034275;28;20480;-76
2022/09/26 06:18:54;;;;;;;24.43;15.23;;;12.20;81.90;;;;;;5028593;28;20448;-75
2022/09/26 06:21:22;;;;;;;23.07;15.03;;;12.30;81.90;;;;;;5026441;28;20846;-76
2022/09/26 06:23:58;;;;;;;23.77;15.00;;;12.30;81.80;;;;;;5026168;28;20487;-76
2022/09/26 06:26:29;;;;;;;23.47;15.50;;;12.30;82.00;;;;;;5024971;28;20492;-75
2022/09/26 06:28:59;;;;;;;29.00;15.90;;;12.40;82.00;;;;;;5025051;28;20483;-75
2022/09/26 06:31:33;;;;;;;24.03;16.50;;;12.40;82.00;;;;;;5055093;28;20467;-75
2022/09/26 06:34:11;;;;;;;24.33;15.60;;;12.40;82.00;;;;;;5027505;28;20518;-75
2022/09/26 06:36:49;;;;;;;24.50;15.53;;;12.40;82.10;;;;;;5036097;28;20538;-75
2022/09/26 06:39:17;;;;;;;26.73;16.43;;;12.50;82.20;;;;;;5029367;28;21031;-75
2022/09/26 06:41:46;;;;;;;25.07;16.43;;;12.50;82.30;;;;;;5022512;28;20495;-75
2022/09/26 06:44:36;;;;;;;26.80;16.80;;;12.60;82.40;;;;;;5028148;28;21034;-75
2022/09/26 06:47:28;;;;;;;28.07;16.47;;;12.60;82.40;;;;;;5018611;28;20470;-75
2022/09/26 06:50:22;;;;;;;30.23;17.93;;;12.70;82.40;;;;;;5021890;28;20466;-75
2022/09/26 06:52:54;;;;;;;25.10;16.80;;;12.70;82.30;;;;;;5025761;28;20468;-76
2022/09/26 06:55:24;;;;;;;23.70;16.07;;;12.70;82.30;;;;;;5026533;28;20586;-74
2022/09/26 06:57:52;;;;;;;26.80;15.20;;;12.80;82.30;;;;;;5036521;28;20463;-75
2022/09/26 07:00:25;;;;;;;23.83;16.07;;;12.80;82.40;;;;;;5025919;28;20921;-76
2022/09/26 07:03:01;;;;;;;25.97;16.70;;;12.80;82.50;;;;;;5033005;28;21040;-76
2022/09/26 07:05:47;;;;;;;24.73;15.90;;;12.90;82.40;;;;;;5025538;28;21090;-75
2022/09/26 07:08:15;;;;;;;24.33;16.90;;;12.90;82.30;;;;;;5023358;28;20492;-76
2022/09/26 07:10:43;;;;;;;26.43;17.83;;;12.90;82.20;;;;;;5026463;28;21000;-76
2022/09/26 07:13:21;;;;;;;24.93;16.33;;;12.90;82.20;;;;;;5028304;28;21011;-75
2022/09/26 07:15:51;;;;;;;25.40;16.30;;;12.90;82.30;;;;;;5035402;28;20488;-74
2022/09/26 07:18:38;;;;;;;26.53;14.27;;;13.00;82.30;;;;;;5025954;28;20459;-76
2022/09/26 07:21:35;;;;;;;19.53;14.60;;;13.00;82.30;;;;;;5008486;28;20476;-75
2022/09/26 07:24:12;;;;;;;25.63;13.80;;;13.00;82.30;;;;;;5026595;28;20475;-74
2022/09/26 07:26:41;;;;;;;25.40;15.30;;;13.00;82.40;;;;;;5018037;28;20471;-76
2022/09/26 07:29:10;;;;;;;25.60;15.60;;;13.00;82.40;;;;;;5025529;28;20897;-76
2022/09/26 07:31:39;;;;;;;23.00;13.10;;;13.00;82.40;;;;;;5020733;28;20522;-76
2022/09/26 07:34:38;;;;;;;22.30;13.43;;;13.00;82.40;;;;;;5024939;28;20510;-76
2022/09/26 07:37:07;;;;;;;20.67;13.90;;;13.00;82.40;;;;;;5041248;28;20555;-76
2022/09/26 07:39:35;;;;;;;19.63;13.63;;;13.00;82.50;;;;;;5019514;28;20467;-75
2022/09/26 07:42:03;;;;;;;22.00;13.97;;;13.10;82.60;;;;;;5037817;28;20910;-75
2022/09/26 07:44:31;;;;;;;18.53;12.53;;;13.10;82.60;;;;;;5023084;28;20495;-75
2022/09/26 07:50:13;;;;;;;22.20;12.20;;;13.20;82.60;;;;;;5018619;28;20470;-75
2022/09/26 07:52:42;;;;;;;18.00;12.30;;;13.20;82.70;;;;;;5022255;28;20456;-75
2022/09/26 07:55:21;;;;;;;22.90;13.97;;;13.30;82.70;;;;;;5027243;28;20507;-75
2022/09/26 07:57:51;;;;;;;23.80;12.33;;;13.30;82.70;;;;;;5024924;28;20460;-75
2022/09/26 08:00:25;;;;;;;20.53;12.33;;;13.30;82.60;;;;;;5024994;28;20463;-75
2022/09/26 08:03:25;;;;;;;26.10;12.43;;;13.30;82.60;;;;;;5013945;28;20472;-75
2022/09/26 08:05:54;;;;;;;18.77;11.67;;;13.30;82.80;;;;;;5025289;28;20565;-74
2022/09/26 08:08:22;;;;;;;17.07;12.03;;;13.40;82.80;;;;;;5021618;28;20501;-76
2022/09/26 08:11:15;;;;;;;17.80;11.20;;;13.40;82.80;;;;;;5024927;28;20570;-76
2022/09/26 08:14:06;;;;;;;20.30;12.07;;;13.40;82.90;;;;;;5027524;28;20510;-74
2022/09/26 08:16:45;;;;;;;20.43;11.70;;;13.40;82.90;;;;;;5015882;28;21048;-76
2022/09/26 08:19:16;;;;;;;19.37;10.77;;;13.50;82.90;;;;;;5032202;28;21332;-75
2022/09/26 08:21:44;;;;;;;14.90;10.80;;;13.50;83.00;;;;;;5022970;28;20447;-75
2022/09/26 08:24:12;;;;;;;16.60;11.00;;;13.50;82.90;;;;;;5024981;28;20471;-75
2022/09/26 08:26:55;;;;;;;17.17;11.50;;;13.50;83.00;;;;;;5025107;28;20478;-75
2022/09/26 08:29:30;;;;;;;13.87;9.40;;;13.60;83.10;;;;;;5023879;28;20560;-75
2022/09/26 08:32:01;;;;;;;14.93;9.93;;;13.60;83.20;;;;;;5025758;28;20460;-74
2022/09/26 08:34:33;;;;;;;17.50;10.80;;;13.70;83.10;;;;;;5023994;28;20824;-75
2022/09/26 08:37:20;;;;;;;18.97;10.07;;;13.80;83.20;;;;;;5029108;28;20459;-76
2022/09/26 08:40:08;;;;;;;16.57;9.20;;;13.90;83.20;;;;;;5025467;28;20542;-76
2022/09/26 08:43:09;;;;;;;14.90;8.50;;;13.90;83.10;;;;;;5026437;28;21040;-76
2022/09/26 08:46:34;;;;;;;14.97;8.60;;;14.00;83.00;;;;;;5032475;28;20570;-74
2022/09/26 08:50:00;;;;;;;16.00;9.00;;;14.10;83.00;;;;;;5024656;28;20459;-75
2022/09/26 08:52:32;;;;;;;14.70;9.47;;;14.10;82.90;;;;;;5015805;28;20834;-75
2022/09/26 08:55:07;;;;;;;14.43;9.20;;;14.20;82.90;;;;;;5023862;28;20515;-76
2022/09/26 08:57:40;;;;;;;13.73;8.13;;;14.20;82.90;;;;;;5024933;28;20454;-75
2022/09/26 09:00:18;;;;;;;12.60;8.53;;;14.20;82.90;;;;;;5022959;28;21047;-76
2022/09/26 09:03:06;;;;;;;15.30;7.33;;;14.30;82.90;;;;;;5016402;28;20460;-74
2022/09/26 09:05:39;;;;;;;15.00;7.77;;;14.30;82.80;;;;;;5021226;28;20487;-75
2022/09/26 09:08:13;;;;;;;12.93;8.77;;;14.30;82.70;;;;;;5025506;28;20546;-76
2022/09/26 09:11:00;;;;;;;16.13;7.93;;;14.30;82.80;;;;;;5024776;28;20492;-75
2022/09/26 09:13:45;;;;;;;13.37;8.57;;;14.30;82.70;;;;;;5023382;28;21309;-76
2022/09/26 09:16:43;;;;;;;9.93;7.00;;;14.30;82.70;;;;;;5018981;28;20491;-76
2022/09/26 09:19:59;;;;;;;13.00;8.40;;;14.30;82.70;;;;;;5010721;28;20490;-76
2022/09/26 09:23:08;;;;;;;9.80;7.30;;;14.40;82.70;;;;;;5023695;28;20470;-76
2022/09/26 09:25:47;;;;;;;17.33;8.37;;;14.40;82.60;;;;;;5017814;28;21198;-76
2022/09/26 09:28:31;;;;;;;13.13;7.97;;;14.40;82.60;;;;;;5021829;28;20904;-76
2022/09/26 09:31:01;;;;;;;10.70;7.80;;;14.50;82.70;;;;;;5021015;28;20561;-76
2022/09/26 09:33:40;;;;;;;12.50;8.00;;;14.50;82.80;;;;;;5028981;28;20533;-74
2022/09/26 09:36:24;;;;;;;13.47;7.57;;;14.60;82.80;;;;;;5020037;28;20486;-77
2022/09/26 09:39:19;;;;;;;10.47;5.73;;;14.70;82.60;;;;;;5023991;28;20451;-77
2022/09/26 09:42:20;;;;;;;10.70;5.80;;;14.80;82.60;;;;;;5025138;28;20478;-77
2022/09/26 09:44:53;;;;;;;9.87;6.00;;;14.80;82.40;;;;;;5018794;28;20491;-75
2022/09/26 09:47:27;;;;;;;11.30;5.70;;;14.80;82.30;;;;;;5026306;28;20589;-76
2022/09/26 09:49:58;;;;;;;9.30;5.03;;;14.90;82.20;;;;;;5026580;28;20463;-76
2022/09/26 09:52:40;;;;;;;11.27;5.73;;;14.90;82.10;;;;;;5016641;28;20846;-76
2022/09/26 09:55:27;;;;;;;10.30;6.20;;;15.00;81.90;;;;;;5027582;28;20479;-77
2022/09/26 09:58:11;;;;;;;8.27;5.37;;;15.00;81.80;;;;;;5029268;28;21229;-78
2022/09/26 10:00:50;;;;;;;8.87;5.43;;;15.00;81.60;;;;;;5025527;28;20486;-77
2022/09/26 10:03:27;;;;;;;8.30;5.50;;;15.00;81.60;;;;;;5023340;28;20459;-76
2022/09/26 10:05:59;;;;;;;7.73;5.10;;;15.10;81.60;;;;;;5018823;28;20570;-77
2022/09/26 10:08:33;;;;;;;6.73;4.43;;;15.10;81.50;;;;;;5024269;28;20551;-76
2022/09/26 10:11:27;;;;;;;7.57;4.90;;;15.20;81.40;;;;;;5028739;28;20452;-77
2022/09/26 10:14:00;;;;;;;6.43;3.83;;;15.20;81.20;;;;;;5025499;28;20506;-76
2022/09/26 10:17:13;;;;;;;6.97;4.60;;;15.20;81.00;;;;;;5024687;28;20485;-76
2022/09/26 10:19:50;;;;;;;10.17;4.33;;;15.20;80.60;;;;;;5026967;28;20463;-77
2022/09/26 10:22:24;;;;;;;7.20;3.93;;;15.20;80.70;;;;;;5021634;28;20451;-75
2022/09/26 10:25:00;;;;;;;7.67;4.27;;;15.10;80.60;;;;;;5025842;28;20480;-77
2022/09/26 10:27:35;;;;;;;10.47;4.70;;;15.10;80.50;;;;;;5032265;28;20538;-77
2022/09/26 10:30:20;;;;;;;5.80;3.60;;;15.10;80.60;;;;;;5023030;28;20454;-77
2022/09/26 10:32:53;;;;;;;8.30;4.33;;;15.10;80.40;;;;;;5027677;28;20459;-76
2022/09/26 10:35:42;;;;;;;9.43;4.00;;;15.10;80.30;;;;;;5027930;28;20953;-76
2022/09/26 10:38:19;;;;;;;9.50;3.50;;;15.10;80.10;;;;;;5027942;28;20496;-78
2022/09/26 10:40:54;;;;;;;6.50;2.83;;;15.10;80.10;;;;;;5022453;28;20829;-76
2022/09/26 10:43:29;;;;;;;7.90;3.17;;;15.20;80.20;;;;;;5024333;28;20483;-75
2022/09/26 10:46:07;;;;;;;6.50;3.20;;;15.20;80.20;;;;;;5032686;28;20911;-75
2022/09/26 10:48:56;;;;;;;7.83;3.13;;;15.20;80.10;;;;;;5023887;28;20526;-77
2022/09/26 10:51:54;;;;;;;6.27;3.30;;;15.30;80.00;;;;;;5026386;28;20796;-77
2022/09/26 10:54:28;;;;;;;4.50;2.50;;;15.30;79.70;;;;;;5034761;28;20460;-77
2022/09/26 10:56:57;;;;;;;6.60;2.67;;;15.40;79.50;;;;;;5034547;28;21133;-75
2022/09/26 10:59:35;;;;;;;5.73;2.87;;;15.40;79.30;;;;;;5027590;28;20474;-76
2022/09/26 11:02:04;;;;;;;5.60;2.80;;;15.40;79.20;;;;;;5014938;28;20471;-77
2022/09/26 11:07:48;;;;;;;6.30;2.90;;;15.40;79.20;;;;;;5023795;28;20471;-77
2022/09/26 11:10:32;;;;;;;4.83;2.37;;;15.50;79.00;;;;;;5026234;28;20898;-76
2022/09/26 11:13:17;;;;;;;5.70;2.90;;;15.50;79.00;;;;;;5018657;28;20468;-77
2022/09/26 11:15:59;;;;;;;5.13;2.77;;;15.50;78.80;;;;;;5020283;28;20515;-77
2022/09/26 11:18:39;;;;;;;6.00;2.60;;;15.60;78.80;;;;;;5023091;28;20451;-77
2022/09/26 11:21:15;;;;;;;5.33;2.07;;;15.70;78.90;;;;;;5020168;28;20526;-78
2022/09/26 11:24:03;;;;;;;5.70;2.77;;;15.70;78.90;;;;;;5017447;28;20461;-77
2022/09/26 11:26:36;;;;;;;8.00;2.40;;;15.80;78.60;;;;;;5028381;28;20541;-77
2022/09/26 11:29:14;;;;;;;9.33;2.00;;;15.80;78.50;;;;;;5024711;28;20468;-76
2022/09/26 11:32:02;;;;;;;5.83;2.23;;;15.90;78.40;;;;;;5015729;28;20463;-76
2022/09/26 11:35:01;;;;;;;4.77;2.10;;;15.90;78.20;;;;;;5023040;28;20486;-78
2022/09/26 11:38:02;;;;;;;4.30;2.13;;;16.00;77.90;;;;;;5027416;28;20466;-75
2022/09/26 11:40:58;;;;;;;7.20;2.50;;;16.00;77.90;;;;;;5020513;28;20456;-76
2022/09/26 11:43:51;;;;;;;5.07;2.30;;;16.00;77.90;;;;;;5022222;28;20487;-76
2022/09/26 11:47:24;;;;;;;5.70;2.27;;;16.00;77.70;;;;;;5025970;28;20524;-78
2022/09/26 11:50:19;;;;;;;5.40;2.30;;;16.00;77.30;;;;;;5017296;28;20551;-77
2022/09/26 11:53:23;;;;;;;5.93;2.30;;;16.00;77.50;;;;;;5023814;28;20463;-78
2022/09/26 11:56:06;;;;;;;6.93;2.33;;;16.10;77.40;;;;;;5021039;28;20480;-77
2022/09/26 11:58:42;;;;;;;4.97;2.30;;;16.10;77.30;;;;;;5025247;28;20487;-77
2022/09/26 12:01:19;;;;;;;4.30;2.10;;;16.20;77.40;;;;;;5025710;28;20574;-78
2022/09/26 12:04:10;;;;;;;6.63;2.10;;;16.20;77.50;;;;;;5027052;28;20514;-76
2022/09/26 12:06:46;;;;;;;4.43;1.80;;;16.30;77.40;;;;;;5025688;28;20475;-76
2022/09/26 12:09:37;;;;;;;6.00;2.03;;;16.40;77.40;;;;;;5024299;28;20501;-77
2022/09/26 12:12:14;;;;;;;4.83;2.00;;;16.50;76.90;;;;;;5024530;28;20448;-77
2022/09/26 12:14:55;;;;;;;6.60;2.23;;;16.50;76.90;;;;;;5023165;28;21087;-78
2022/09/26 12:17:39;;;;;;;5.00;1.77;;;16.60;76.90;;;;;;5018186;28;21034;-77
2022/09/26 12:20:26;;;;;;;4.67;1.80;;;16.60;76.10;;;;;;5026107;28;20530;-79
2022/09/26 12:23:00;;;;;;;4.90;1.93;;;16.60;76.10;;;;;;5016054;28;20475;-78
2022/09/26 12:25:37;;;;;;;4.77;1.63;;;16.70;76.00;;;;;;5026045;28;20962;-78
2022/09/26 12:28:24;;;;;;;9.80;1.93;;;16.70;75.80;;;;;;5026320;28;20474;-77
2022/09/26 12:31:04;;;;;;;4.17;1.50;;;16.60;75.40;;;;;;5024199;28;21051;-77
2022/09/26 12:33:52;;;;;;;4.37;1.47;;;16.60;75.30;;;;;;5020185;28;20483;-78
2022/09/26 12:36:36;;;;;;;4.87;1.40;;;16.50;74.90;;;;;;5027761;28;20479;-76
2022/09/26 12:39:21;;;;;;;4.50;1.50;;;16.50;74.80;;;;;;5022821;28;20916;-77
2022/09/26 12:42:04;;;;;;;4.83;1.80;;;16.40;74.80;;;;;;5013941;28;21212;-77
2022/09/26 12:44:48;;;;;;;5.23;1.60;;;16.40;74.70;;;;;;5024980;28;20594;-77
2022/09/26 12:47:42;;;;;;;4.43;2.07;;;16.30;74.80;;;;;;5026290;28;21259;-77
2022/09/26 12:50:17;;;;;;;5.20;2.10;;;16.30;74.70;;;;;;5026076;28;20490;-76
2022/09/26 12:53:17;;;;;;;5.30;1.97;;;16.30;74.70;;;;;;5024620;28;20504;-78
2022/09/26 12:55:57;;;;;;;5.87;2.37;;;16.30;74.70;;;;;;5024482;28;20475;-76
2022/09/26 12:58:48;;;;;;;5.53;2.10;;;16.30;74.70;;;;;;5023782;28;20487;-77
2022/09/26 13:01:31;;;;;;;5.80;1.90;;;16.30;74.70;;;;;;5024427;28;20474;-77
2022/09/26 13:04:19;;;;;;;4.90;1.93;;;16.30;74.70;;;;;;5023002;28;20463;-77
2022/09/26 13:07:11;;;;;;;5.50;1.83;;;16.30;74.60;;;;;;5025287;28;20510;-78
2022/09/26 13:10:20;;;;;;;7.43;2.00;;;16.40;74.40;;;;;;5004890;28;20574;-79
2022/09/26 13:13:24;;;;;;;5.20;1.67;;;16.30;74.20;;;;;;5021840;28;20455;-77
2022/09/26 13:16:06;;;;;;;5.03;1.37;;;16.20;74.10;;;;;;4977783;28;20545;-78
2022/09/26 13:18:42;;;;;;;4.40;1.37;;;16.10;73.90;;;;;;5023932;28;20468;-78
2022/09/26 13:21:13;;;;;;;5.37;1.90;;;16.00;73.80;;;;;;5040960;28;20495;-78
2022/09/26 13:23:47;;;;;;;5.13;1.13;;;15.80;74.00;;;;;;5023744;28;20522;-78
2022/09/26 13:26:24;;;;;;;3.50;0.97;;;15.70;74.00;;;;;;5025096;28;20488;-78
2022/09/26 13:28:59;;;;;;;4.07;1.30;;;15.60;74.10;;;;;;5024883;28;20470;-78
2022/09/26 13:31:54;;;;;;;5.10;1.30;;;15.60;74.10;;;;;;5016861;28;21150;-78
2022/09/26 13:34:28;;;;;;;4.33;1.10;;;15.40;74.00;;;;;;5020227;28;20474;-78
2022/09/26 13:36:59;;;;;;;4.13;1.03;;;15.30;74.10;;;;;;5024608;28;20459;-78
2022/09/26 13:39:32;;;;;;;4.47;1.30;;;15.30;74.10;;;;;;5022747;28;20495;-78
2022/09/26 13:42:06;;;;;;;3.70;1.30;;;15.20;74.20;;;;;;5022362;28;20455;-77
2022/09/26 13:44:55;;;;;;;5.13;1.07;;;15.10;74.50;;;;;;5029025;28;20483;-79
2022/09/26 13:47:34;;;;;;;4.10;1.37;;;15.20;74.60;;;;;;5013690;28;20466;-77